createdAt,value
2019-02-28T00:01:36.494Z,101113.08
2019-02-28T00:04:40.814Z,101117.05
2019-02-28T00:07:45.510Z,101124.55
2019-02-28T00:10:49.896Z,101128.05
2019-02-28T00:13:55.848Z,101130.27
2019-02-28T00:17:01.735Z,101134.67
2019-02-28T00:20:06.619Z,101137.33
2019-02-28T00:23:10.964Z,101132.04
2019-02-28T00:26:17.647Z,101123.70
2019-02-28T00:29:21.990Z,101130.72
2019-02-28T00:32:26.515Z,101131.60
2019-02-28T00:35:30.987Z,101121.95
2019-02-28T00:38:35.546Z,101110.92
2019-02-28T00:41:43.130Z,101104.75
2019-02-28T00:44:45.851Z,101105.19
2019-02-28T00:47:50.275Z,101109.59
2019-02-28T00:50:54.591Z,101117.06
2019-02-28T00:53:58.871Z,101109.59
2019-02-28T00:57:03.188Z,101107.81
2019-02-28T01:00:08.253Z,101106.94
2019-02-28T01:03:12.591Z,101090.69
2019-02-28T01:06:16.881Z,101099.48
2019-02-28T01:09:22.313Z,101091.98
2019-02-28T01:12:26.743Z,101094.17
2019-02-28T01:15:31.042Z,101086.27
2019-02-28T01:18:35.662Z,101075.70
2019-02-28T01:21:39.964Z,101070.42
2019-02-28T01:24:44.287Z,101065.17
2019-02-28T01:27:48.879Z,101066.03
2019-02-28T01:30:53.276Z,101062.98
2019-02-28T01:33:58.746Z,101066.03
2019-02-28T01:37:03.741Z,101061.20
2019-02-28T01:40:08.417Z,101050.23
2019-02-28T01:43:12.932Z,101051.13
2019-02-28T01:46:20.025Z,101048.02
2019-02-28T01:49:27.092Z,101046.72
2019-02-28T01:52:31.515Z,101045.84
2019-02-28T01:55:35.789Z,101047.59
2019-02-28T01:58:40.084Z,101052.42
2019-02-28T02:01:44.381Z,101058.55
2019-02-28T02:04:49.188Z,101047.59
2019-02-28T02:07:53.546Z,101055.49
2019-02-28T02:10:57.862Z,101044.97
2019-02-28T02:14:02.168Z,101040.13
2019-02-28T02:17:06.474Z,101043.66
2019-02-28T02:20:11.255Z,101041.02
2019-02-28T02:23:18.089Z,101046.73
2019-02-28T02:26:21.702Z,101035.34
2019-02-28T02:29:26.121Z,101032.69
2019-02-28T02:32:37.045Z,101028.29
2019-02-28T02:35:42.173Z,101029.63
2019-02-28T02:38:42.498Z,101024.34
2019-02-28T02:41:46.776Z,101019.94
2019-02-28T02:44:51.134Z,101020.82
2019-02-28T02:47:55.421Z,101018.20
2019-02-28T02:50:59.725Z,101014.25
2019-02-28T02:54:04.131Z,101020.84
2019-02-28T02:57:08.421Z,101016.42
2019-02-28T03:00:15.661Z,101010.73
2019-02-28T03:03:20.116Z,101016.87
2019-02-28T03:06:24.407Z,101005.45
2019-02-28T03:09:28.692Z,101009.42
2019-02-28T03:12:36.246Z,101000.63
2019-02-28T03:15:43.775Z,101005.03
2019-02-28T03:18:48.082Z,100998.85
2019-02-28T03:21:52.989Z,100979.97
2019-02-28T03:24:57.339Z,100990.52
2019-02-28T03:28:01.668Z,100992.70
2019-02-28T03:31:14.367Z,100981.29
2019-02-28T03:34:14.030Z,100991.83
2019-02-28T03:37:18.047Z,100981.28
2019-02-28T03:40:22.342Z,100974.72
2019-02-28T03:43:26.699Z,100958.46
2019-02-28T03:46:30.976Z,100966.80
2019-02-28T03:49:35.374Z,100981.30
2019-02-28T03:52:43.937Z,100973.38
2019-02-28T03:55:45.760Z,100954.05
2019-02-28T03:58:50.308Z,100954.95
2019-02-28T04:01:54.652Z,100948.80
2019-02-28T04:04:58.972Z,100951.89
2019-02-28T04:08:03.413Z,100944.39
2019-02-28T04:11:07.709Z,100940.02
2019-02-28T04:14:11.997Z,100940.45
2019-02-28T04:17:16.503Z,100949.68
2019-02-28T04:20:20.971Z,100961.55
2019-02-28T04:23:25.303Z,100972.07
2019-02-28T04:26:30.163Z,100980.41
2019-02-28T04:29:35.475Z,100997.98
2019-02-28T04:32:39.756Z,100977.75
2019-02-28T04:35:44.076Z,100966.78
2019-02-28T04:38:48.352Z,100961.51
2019-02-28T04:41:52.654Z,100961.07
2019-02-28T04:44:57.055Z,100954.92
2019-02-28T04:48:01.383Z,100965.46
2019-02-28T04:51:06.551Z,100972.48
2019-02-28T04:54:13.637Z,100978.66
2019-02-28T04:57:20.727Z,100979.52
2019-02-28T05:00:23.958Z,100980.41
2019-02-28T05:03:29.210Z,100991.82
2019-02-28T05:06:33.528Z,100988.75
2019-02-28T05:09:37.846Z,100988.77
2019-02-28T05:12:42.274Z,100987.00
2019-02-28T05:15:46.669Z,100987.00
2019-02-28T05:18:50.986Z,100995.81
2019-02-28T05:21:55.255Z,101001.07
2019-02-28T05:24:59.623Z,101007.20
2019-02-28T05:28:06.785Z,100997.97
2019-02-28T05:31:10.009Z,100990.94
2019-02-28T05:34:16.852Z,100988.73
2019-02-28T05:37:21.371Z,101005.00
2019-02-28T05:40:25.656Z,101001.50
2019-02-28T05:43:32.139Z,101002.38
2019-02-28T05:46:40.056Z,101010.72
2019-02-28T05:49:45.657Z,101000.17
2019-02-28T05:52:50.160Z,100999.74
2019-02-28T05:55:58.922Z,100996.23
2019-02-28T05:59:03.062Z,100987.88
2019-02-28T06:02:07.376Z,100974.67
2019-02-28T06:05:12.972Z,100967.24
2019-02-28T06:08:17.254Z,100968.54
2019-02-28T06:11:21.586Z,100975.16
2019-02-28T06:14:27.644Z,100984.81
2019-02-28T06:17:35.115Z,100976.91
2019-02-28T06:20:39.432Z,100983.94
2019-02-28T06:23:44.048Z,100980.42
2019-02-28T06:26:48.407Z,100977.78
2019-02-28T06:29:52.703Z,101001.94
2019-02-28T06:32:59.152Z,100998.86
2019-02-28T06:36:04.615Z,100996.22
2019-02-28T06:39:08.981Z,100995.34
2019-02-28T06:42:13.657Z,100996.69
2019-02-28T06:45:17.981Z,101003.25
2019-02-28T06:48:26.616Z,100987.88
2019-02-28T06:51:30.821Z,100991.39
2019-02-28T06:54:35.109Z,101001.95
2019-02-28T06:57:39.403Z,100993.62
2019-02-28T07:00:47.326Z,101006.33
2019-02-28T07:03:55.044Z,101006.77
2019-02-28T07:06:59.353Z,101017.76
2019-02-28T07:10:09.607Z,101024.77
2019-02-28T07:13:14.013Z,101023.91
2019-02-28T07:16:18.330Z,101029.63
2019-02-28T07:19:26.177Z,101035.78
2019-02-28T07:22:28.641Z,101026.97
2019-02-28T07:25:33.156Z,101021.71
2019-02-28T07:28:37.767Z,101033.98
2019-02-28T07:31:44.647Z,101026.95
2019-02-28T07:34:49.082Z,101028.30
2019-02-28T07:37:54.621Z,101034.45
2019-02-28T07:40:59.209Z,101040.59
2019-02-28T07:44:03.555Z,101049.36
2019-02-28T07:47:07.828Z,101058.16
2019-02-28T07:50:12.465Z,101051.59
2019-02-28T07:53:16.744Z,101035.72
2019-02-28T07:56:21.040Z,101050.19
2019-02-28T07:59:25.342Z,101057.22
2019-02-28T08:02:29.637Z,101051.95
2019-02-28T08:05:36.014Z,101060.80
2019-02-28T08:08:40.325Z,101067.39
2019-02-28T08:11:44.633Z,101079.70
2019-02-28T08:14:50.194Z,101088.46
2019-02-28T08:17:54.550Z,101077.91
2019-02-28T08:20:58.798Z,101067.78
2019-02-28T08:24:05.487Z,101072.18
2019-02-28T08:27:09.090Z,101062.46
2019-02-28T08:30:16.335Z,101058.50
2019-02-28T08:33:21.534Z,101052.29
2019-02-28T08:36:25.832Z,101037.74
2019-02-28T08:39:30.146Z,101049.22
2019-02-28T08:42:38.628Z,101042.10
2019-02-28T08:45:40.626Z,101030.20
2019-02-28T08:48:45.038Z,101043.42
2019-02-28T08:51:49.443Z,101040.31
2019-02-28T08:54:53.812Z,101040.75
2019-02-28T08:58:05.257Z,101043.86
2019-02-28T09:01:06.571Z,101064.51
2019-02-28T09:04:10.981Z,101060.05
2019-02-28T09:07:15.958Z,101053.59
2019-02-28T09:10:20.604Z,101045.20
2019-02-28T09:13:26.935Z,101047.77
2019-02-28T09:16:31.246Z,101045.94
2019-02-28T09:19:35.988Z,101039.30
2019-02-28T09:22:41.208Z,101032.25
2019-02-28T09:25:47.178Z,101039.78
2019-02-28T09:28:53.149Z,101037.52
2019-02-28T09:32:13.595Z,101060.73
2019-02-28T09:35:16.428Z,101063.20
2019-02-28T09:38:20.720Z,101049.77
2019-02-28T09:41:25.114Z,101042.77
2019-02-28T09:44:31.425Z,101040.56
2019-02-28T09:47:37.137Z,101053.66
2019-02-28T09:50:41.597Z,101044.73
2019-02-28T09:53:47.353Z,101052.52
2019-02-28T09:56:51.940Z,101064.53
2019-02-28T09:59:56.225Z,101069.05
2019-02-28T10:03:00.510Z,101064.17
2019-02-28T10:06:04.875Z,101057.34
2019-02-28T10:09:09.556Z,101061.28
2019-02-28T10:12:13.958Z,101050.17
2019-02-28T10:15:19.661Z,101060.33
2019-02-28T10:18:23.968Z,101057.72
2019-02-28T10:21:28.308Z,101044.05
2019-02-28T10:24:32.584Z,101060.84
2019-02-28T10:27:36.952Z,101053.02
2019-02-28T10:30:41.239Z,101058.92
2019-02-28T10:33:49.524Z,101056.47
2019-02-28T10:36:57.136Z,101041.84
2019-02-28T10:40:05.045Z,101041.26
2019-02-28T10:43:12.190Z,101046.26
2019-02-28T10:46:20.098Z,101048.55
2019-02-28T10:49:24.267Z,101053.75
2019-02-28T10:52:30.642Z,101040.37
2019-02-28T10:55:36.856Z,101056.14
2019-02-28T10:58:41.199Z,101053.36
2019-02-28T11:01:45.470Z,101044.06
2019-02-28T11:04:49.753Z,101041.67
2019-02-28T11:07:54.346Z,101040.23
2019-02-28T11:11:02.706Z,101038.32
2019-02-28T11:14:08.854Z,101036.91
2019-02-28T11:17:13.878Z,101048.62
2019-02-28T11:20:22.177Z,101055.58
2019-02-28T11:23:26.956Z,101058.67
2019-02-28T11:26:31.477Z,101061.77
2019-02-28T11:29:36.369Z,101064.57
2019-02-28T11:32:40.916Z,101058.86
2019-02-28T11:35:45.233Z,101060.77
2019-02-28T11:38:52.477Z,101063.28
2019-02-28T11:41:55.644Z,101058.42
2019-02-28T11:44:59.950Z,101050.49
2019-02-28T11:48:06.591Z,101058.12
2019-02-28T11:51:10.894Z,101063.15
2019-02-28T11:54:15.213Z,101056.98
2019-02-28T11:57:20.676Z,101059.78
2019-02-28T12:00:28.009Z,101049.06
2019-02-28T12:03:35.564Z,101055.15
2019-02-28T12:06:40.377Z,101051.38
2019-02-28T12:09:44.778Z,101046.00
2019-02-28T12:12:49.453Z,101047.84
2019-02-28T12:15:53.787Z,101040.95
2019-02-28T12:18:58.243Z,101026.38
2019-02-28T12:22:02.552Z,101022.31
2019-02-28T12:25:08.491Z,101020.42
2019-02-28T12:28:12.860Z,101027.51
2019-02-28T12:31:17.167Z,101026.81
2019-02-28T12:34:21.487Z,101018.77
2019-02-28T12:37:25.863Z,101009.03
2019-02-28T12:40:30.555Z,100998.58
2019-02-28T12:43:36.038Z,101000.83
2019-02-28T12:46:43.398Z,101001.32
2019-02-28T12:49:47.749Z,101009.03
2019-02-28T12:52:53.018Z,101003.00
2019-02-28T12:55:57.419Z,101001.81
2019-02-28T12:59:01.724Z,101007.21
2019-02-28T13:02:08.479Z,101004.72
2019-02-28T13:05:14.808Z,101001.31
2019-02-28T13:08:18.935Z,101013.02
2019-02-28T13:11:26.327Z,101004.60
2019-02-28T13:14:30.757Z,100996.50
2019-02-28T13:17:35.134Z,100997.60
2019-02-28T13:20:39.736Z,101004.20
2019-02-28T13:23:44.253Z,101013.06
2019-02-28T13:26:48.657Z,101014.00
2019-02-28T13:29:53.278Z,101016.25
2019-02-28T13:32:57.789Z,101012.89
2019-02-28T13:36:02.120Z,101022.11
2019-02-28T13:39:09.016Z,101012.75
2019-02-28T13:42:13.606Z,101010.76
2019-02-28T13:45:23.240Z,101005.05
2019-02-28T13:48:33.149Z,101002.61
2019-02-28T13:51:40.489Z,101002.61
2019-02-28T13:54:42.030Z,101010.45
2019-02-28T13:57:47.124Z,101012.44
2019-02-28T14:00:51.607Z,101012.00
2019-02-28T14:03:55.925Z,101001.45
2019-02-28T14:07:00.268Z,100996.19
2019-02-28T14:10:05.029Z,101001.41
2019-02-28T14:13:09.425Z,100995.69
2019-02-28T14:16:13.784Z,101005.08
2019-02-28T14:19:20.464Z,101000.25
2019-02-28T14:22:27.368Z,101008.09
2019-02-28T14:25:31.760Z,101010.88
2019-02-28T14:28:36.376Z,101003.58
2019-02-28T14:31:40.780Z,101008.64
2019-02-28T14:34:45.092Z,101008.14
2019-02-28T14:37:51.838Z,101007.42
2019-02-28T14:40:55.706Z,101004.32
2019-02-28T14:44:00.106Z,101003.96
2019-02-28T14:47:04.480Z,101001.42
2019-02-28T14:50:10.018Z,100994.70
2019-02-28T14:53:14.668Z,100993.54
2019-02-28T14:56:19.185Z,100992.70
2019-02-28T14:59:23.577Z,100988.88
2019-02-28T15:02:28.819Z,100988.36
2019-02-28T15:05:33.613Z,100976.97
2019-02-28T15:08:38.038Z,100976.44
2019-02-28T15:11:43.577Z,100981.19
2019-02-28T15:14:48.476Z,100970.28
2019-02-28T15:17:52.771Z,100973.91
2019-02-28T15:20:57.055Z,100975.78
2019-02-28T15:24:01.433Z,100973.50
2019-02-28T15:27:05.700Z,100975.30
2019-02-28T15:30:15.391Z,100971.39
2019-02-28T15:33:22.727Z,100969.77
2019-02-28T15:36:27.032Z,100970.81
2019-02-28T15:39:31.356Z,100963.67
2019-02-28T15:42:35.859Z,100970.09
2019-02-28T15:45:40.423Z,100974.73
2019-02-28T15:48:44.696Z,100987.64
2019-02-28T15:51:49.001Z,100982.05
2019-02-28T15:54:53.283Z,100981.63
2019-02-28T15:57:57.607Z,100982.08
2019-02-28T16:01:01.988Z,100983.95
2019-02-28T16:04:08.703Z,100987.11
2019-02-28T16:07:16.172Z,100991.63
2019-02-28T16:10:22.440Z,100993.51
2019-02-28T16:13:26.797Z,100994.93
2019-02-28T16:16:31.171Z,100996.38
2019-02-28T16:19:35.658Z,101000.36
2019-02-28T16:22:39.952Z,101007.91
2019-02-28T16:25:48.167Z,101005.39
2019-02-28T16:28:53.432Z,101005.06
2019-02-28T16:31:57.828Z,101007.34
2019-02-28T16:35:02.171Z,101009.16
2019-02-28T16:38:09.871Z,101014.11
2019-02-28T16:41:12.678Z,101017.69
2019-02-28T16:44:17.047Z,101017.78
2019-02-28T16:47:24.240Z,101016.52
2019-02-28T16:50:27.527Z,101016.14
2019-02-28T16:53:34.176Z,101018.41
2019-02-28T16:56:38.767Z,101018.91
2019-02-28T16:59:45.591Z,101029.53
2019-02-28T17:02:52.339Z,101032.18
2019-02-28T17:05:58.500Z,101033.57
2019-02-28T17:09:18.360Z,101034.09
2019-02-28T17:12:40.613Z,101042.45
2019-02-28T17:16:06.618Z,101041.19
2019-02-28T17:19:11.504Z,101041.20
2019-02-28T17:22:15.857Z,101034.61
2019-02-28T17:25:21.829Z,101031.52
2019-02-28T17:29:03.682Z,101033.33
2019-02-28T17:32:08.532Z,101032.04
2019-02-28T17:35:13.118Z,101018.45
2019-02-28T17:38:17.530Z,101013.64
2019-02-28T17:41:21.855Z,101014.57
2019-02-28T17:44:41.721Z,101017.63
2019-02-28T17:48:38.935Z,101029.55
2019-02-28T17:51:55.480Z,101026.50
2019-02-28T17:55:18.028Z,101019.03
2019-02-28T17:59:00.458Z,101013.78
2019-02-28T18:02:38.163Z,101021.27
2019-02-28T18:06:29.333Z,101018.20
2019-02-28T18:09:52.050Z,101012.04
2019-02-28T18:13:16.270Z,101026.53
2019-02-28T18:16:49.824Z,101018.62
2019-02-28T18:20:14.723Z,101021.72
2019-02-28T18:24:04.055Z,101027.88
2019-02-28T18:27:39.759Z,101023.47
2019-02-28T18:31:08.311Z,101032.24
2019-02-28T18:34:16.914Z,101030.04
2019-02-28T18:37:24.492Z,101025.22
2019-02-28T18:40:31.166Z,101017.73
2019-02-28T18:43:35.457Z,101025.62
2019-02-28T18:46:39.890Z,101032.20
2019-02-28T18:49:47.253Z,101030.00
2019-02-28T18:52:51.717Z,101040.98
2019-02-28T18:55:58.385Z,101038.73
2019-02-28T18:59:02.690Z,101034.36
2019-02-28T19:02:09.588Z,101035.66
2019-02-28T19:05:14.131Z,101034.31
2019-02-28T19:08:18.630Z,101027.75
2019-02-28T19:11:23.174Z,101032.12
2019-02-28T19:14:28.117Z,101033.88
2019-02-28T19:17:32.584Z,101031.74
2019-02-28T19:20:39.805Z,101026.47
2019-02-28T19:23:44.262Z,101031.31
2019-02-28T19:26:48.895Z,101032.20
2019-02-28T19:29:53.442Z,101043.20
2019-02-28T19:32:57.863Z,101037.06
2019-02-28T19:36:02.209Z,101037.51
2019-02-28T19:39:09.213Z,101047.14
2019-02-28T19:42:13.837Z,101041.00
2019-02-28T19:45:18.414Z,101047.17
2019-02-28T19:48:24.721Z,101055.08
2019-02-28T19:51:29.272Z,101052.39
2019-02-28T19:54:35.411Z,101054.58
2019-02-28T19:57:43.011Z,101054.59
2019-02-28T20:00:47.375Z,101051.50
2019-02-28T20:03:51.895Z,101042.72
2019-02-28T20:06:56.687Z,101055.03
2019-02-28T20:10:03.781Z,101055.88
2019-02-28T20:13:10.453Z,101055.43
2019-02-28T20:16:15.107Z,101058.97
2019-02-28T20:19:19.554Z,101065.59
2019-02-28T20:22:24.541Z,101063.81
2019-02-28T20:25:29.147Z,101074.36
2019-02-28T20:28:33.818Z,101070.39
2019-02-28T20:31:38.307Z,101061.20
2019-02-28T20:34:42.759Z,101060.75
2019-02-28T20:37:47.299Z,101065.58
2019-02-28T20:40:51.933Z,101066.47
2019-02-28T20:43:56.491Z,101066.06
2019-02-28T20:47:00.835Z,101071.73
2019-02-28T20:50:18.191Z,101069.09
2019-02-28T20:53:22.847Z,101066.88
2019-02-28T20:56:27.434Z,101055.47
2019-02-28T20:59:32.652Z,101045.81
2019-02-28T21:02:37.281Z,101063.36
2019-02-28T21:05:42.035Z,101061.65
2019-02-28T21:08:49.503Z,101062.09
2019-02-28T21:11:54.049Z,101062.09
2019-02-28T21:14:58.647Z,101056.83
2019-02-28T21:18:02.967Z,101061.66
2019-02-28T21:21:07.687Z,101059.03
2019-02-28T21:24:12.187Z,101055.95
2019-02-28T21:27:16.782Z,101051.12
2019-02-28T21:30:22.263Z,101048.92
2019-02-28T21:33:26.976Z,101052.45
2019-02-28T21:36:31.695Z,101048.48
2019-02-28T21:39:36.368Z,101049.78
2019-02-28T21:42:40.745Z,101051.13
2019-02-28T21:45:45.371Z,101048.48
2019-02-28T21:48:49.900Z,101052.44
2019-02-28T21:51:54.404Z,101051.13
2019-02-28T21:54:59.231Z,101049.81
2019-02-28T21:58:03.558Z,101046.28
2019-02-28T22:01:08.117Z,101046.28
2019-02-28T22:04:12.486Z,101042.31
2019-02-28T22:07:17.129Z,101041.91
2019-02-28T22:10:21.614Z,101039.23
2019-02-28T22:13:26.234Z,101049.77
2019-02-28T22:16:30.656Z,101058.52
2019-02-28T22:19:35.303Z,101051.97
2019-02-28T22:22:39.921Z,101047.58
2019-02-28T22:25:44.509Z,101045.41
2019-02-28T22:28:49.118Z,101037.92
2019-02-28T22:32:12.677Z,101030.46
2019-02-28T22:35:39.135Z,101034.83
2019-02-28T22:38:43.420Z,101036.18
2019-02-28T22:41:48.166Z,101036.57
2019-02-28T22:44:52.737Z,101032.63
2019-02-28T22:47:57.327Z,101028.27
2019-02-28T22:51:01.813Z,101026.06
2019-02-28T22:54:06.561Z,101023.41
2019-02-28T22:57:11.078Z,101014.62
2019-02-28T23:00:33.277Z,101016.39
2019-02-28T23:03:38.210Z,101016.81
2019-02-28T23:06:42.549Z,101016.80
2019-02-28T23:09:47.184Z,101013.27
2019-02-28T23:12:53.268Z,101015.01
2019-02-28T23:15:57.581Z,101017.23
2019-02-28T23:19:02.032Z,101016.37
2019-02-28T23:22:06.327Z,101022.03
2019-02-28T23:25:10.671Z,101023.34
2019-02-28T23:28:26.382Z,101018.98
2019-02-28T23:32:07.579Z,101006.25
2019-02-28T23:35:18.463Z,101008.85
2019-02-28T23:38:22.799Z,101006.23
2019-02-28T23:41:27.418Z,101000.50
2019-02-28T23:44:31.720Z,101004.88
2019-02-28T23:47:36.022Z,100997.02
2019-02-28T23:50:40.345Z,100988.25
2019-02-28T23:53:44.718Z,100994.41
2019-02-28T23:56:49.180Z,100997.95
2019-02-28T23:59:53.550Z,101000.12
